createdAt,value
2019-02-19T00:03:07.830Z,98718.70
2019-02-19T00:05:18.671Z,98717.86
2019-02-19T00:07:29.525Z,98715.88
2019-02-19T00:09:40.317Z,98723.66
2019-02-19T00:11:51.132Z,98717.61
2019-02-19T00:14:01.943Z,98720.95
2019-02-19T00:16:12.779Z,98721.36
2019-02-19T00:18:23.582Z,98720.03
2019-02-19T00:20:34.428Z,98728.11
2019-02-19T00:22:45.247Z,98719.94
2019-02-19T00:24:56.057Z,98719.39
2019-02-19T00:27:06.879Z,98718.45
2019-02-19T00:29:17.669Z,98718.06
2019-02-19T00:31:28.485Z,98710.47
2019-02-19T00:33:39.288Z,98715.92
2019-02-19T00:35:50.093Z,98715.93
2019-02-19T00:38:00.913Z,98714.21
2019-02-19T00:40:11.717Z,98703.53
2019-02-19T00:42:22.526Z,98705.23
2019-02-19T00:44:33.337Z,98706.61
2019-02-19T00:46:44.146Z,98705.37
2019-02-19T00:48:54.945Z,98709.41
2019-02-19T00:51:05.843Z,98713.77
2019-02-19T00:53:16.653Z,98708.66
2019-02-19T00:55:27.472Z,98713.81
2019-02-19T00:57:38.290Z,98710.69
2019-02-19T00:59:49.107Z,98714.39
2019-02-19T01:01:59.917Z,98718.54
2019-02-19T01:04:10.743Z,98710.76
2019-02-19T01:06:21.552Z,98705.19
2019-02-19T01:08:32.370Z,98707.80
2019-02-19T01:10:43.158Z,98710.98
2019-02-19T01:12:54.005Z,98709.41
2019-02-19T01:15:26.566Z,98717.92
2019-02-19T01:17:37.399Z,98712.80
2019-02-19T01:19:48.209Z,98716.20
2019-02-19T01:21:58.998Z,98719.12
2019-02-19T01:24:09.835Z,98716.64
2019-02-19T01:26:20.621Z,98718.32
2019-02-19T01:28:31.430Z,98708.91
2019-02-19T01:30:42.229Z,98713.59
2019-02-19T01:32:53.027Z,98709.71
2019-02-19T01:35:45.489Z,98704.67
2019-02-19T01:37:56.291Z,98705.08
2019-02-19T01:40:48.760Z,98706.71
2019-02-19T01:42:59.548Z,98703.34
2019-02-19T01:45:10.366Z,98705.08
2019-02-19T01:47:41.053Z,98697.97
2019-02-19T01:49:51.869Z,98697.97
2019-02-19T01:52:02.654Z,98701.06
2019-02-19T01:54:13.471Z,98700.00
2019-02-19T01:56:24.269Z,98691.92
2019-02-19T01:58:35.093Z,98698.84
2019-02-19T02:00:45.901Z,98695.17
2019-02-19T02:02:56.794Z,98694.33
2019-02-19T02:05:07.699Z,98690.53
2019-02-19T02:07:18.499Z,98680.78
2019-02-19T02:09:29.318Z,98685.06
2019-02-19T02:11:40.146Z,98687.98
2019-02-19T02:13:50.958Z,98682.86
2019-02-19T02:16:01.866Z,98678.19
2019-02-19T02:18:12.657Z,98681.17
2019-02-19T02:20:23.497Z,98689.26
2019-02-19T02:22:34.421Z,98686.66
2019-02-19T02:24:45.228Z,98687.45
2019-02-19T02:26:56.052Z,98682.33
2019-02-19T02:29:06.841Z,98681.05
2019-02-19T02:31:17.650Z,98684.02
2019-02-19T02:33:28.446Z,98687.80
2019-02-19T02:35:39.270Z,98688.57
2019-02-19T02:37:50.064Z,98689.80
2019-02-19T02:40:01.056Z,98685.09
2019-02-19T02:42:11.899Z,98691.13
2019-02-19T02:44:22.668Z,98681.23
2019-02-19T02:46:33.486Z,98684.59
2019-02-19T02:48:44.270Z,98691.84
2019-02-19T02:50:55.092Z,98693.91
2019-02-19T02:53:05.887Z,98690.12
2019-02-19T02:55:16.843Z,98693.60
2019-02-19T02:57:27.660Z,98692.92
2019-02-19T02:59:38.484Z,98699.45
2019-02-19T03:01:49.398Z,98699.05
2019-02-19T03:04:20.097Z,98699.01
2019-02-19T03:08:49.928Z,98687.05
2019-02-19T03:11:00.733Z,98693.53
2019-02-19T03:13:11.549Z,98689.34
2019-02-19T03:15:22.349Z,98682.98
2019-02-19T03:17:33.155Z,98688.66
2019-02-19T03:19:43.970Z,98691.77
2019-02-19T03:21:54.771Z,98690.13
2019-02-19T03:24:05.569Z,98687.59
2019-02-19T03:26:16.351Z,98689.31
2019-02-19T03:28:27.169Z,98693.05
2019-02-19T03:30:37.977Z,98691.32
2019-02-19T03:32:48.793Z,98693.33
2019-02-19T03:34:59.572Z,98695.84
2019-02-19T03:37:10.403Z,98692.41
2019-02-19T03:39:21.186Z,98694.45
2019-02-19T03:41:32.101Z,98696.01
2019-02-19T03:43:42.934Z,98686.22
2019-02-19T03:45:53.736Z,98689.53
2019-02-19T03:48:04.547Z,98689.92
2019-02-19T03:50:15.347Z,98688.09
2019-02-19T03:52:26.157Z,98688.52
2019-02-19T03:54:36.971Z,98698.28
2019-02-19T03:56:47.803Z,98697.47
2019-02-19T03:58:58.610Z,98702.20
2019-02-19T04:01:09.538Z,98705.99
2019-02-19T04:03:20.370Z,98703.84
2019-02-19T04:05:31.156Z,98701.36
2019-02-19T04:07:41.947Z,98704.32
2019-02-19T04:09:52.768Z,98703.44
2019-02-19T04:12:03.572Z,98707.31
2019-02-19T04:14:14.377Z,98709.48
2019-02-19T04:16:25.283Z,98706.48
2019-02-19T04:18:36.083Z,98706.80
2019-02-19T04:20:46.889Z,98706.75
2019-02-19T04:22:57.684Z,98708.47
2019-02-19T04:25:08.496Z,98707.55
2019-02-19T04:28:00.947Z,98710.95
2019-02-19T04:30:11.768Z,98710.98
2019-02-19T04:32:22.556Z,98709.62
2019-02-19T04:34:33.361Z,98710.15
2019-02-19T04:36:44.154Z,98709.67
2019-02-19T04:38:54.946Z,98710.95
2019-02-19T04:41:05.756Z,98713.47
2019-02-19T04:43:16.540Z,98712.67
2019-02-19T04:45:27.368Z,98716.91
2019-02-19T04:47:38.158Z,98714.79
2019-02-19T04:49:48.979Z,98718.98
2019-02-19T04:51:59.762Z,98711.74
2019-02-19T04:54:10.565Z,98714.75
2019-02-19T04:56:21.406Z,98712.18
2019-02-19T04:58:32.189Z,98712.49
2019-02-19T05:00:43.025Z,98713.42
2019-02-19T05:02:53.824Z,98707.11
2019-02-19T05:05:46.285Z,98714.27
2019-02-19T05:07:57.087Z,98708.30
2019-02-19T05:10:08.115Z,98708.44
2019-02-19T05:12:18.913Z,98702.91
2019-02-19T05:14:29.698Z,98707.98
2019-02-19T05:16:41.258Z,98709.62
2019-02-19T05:21:25.588Z,98711.74
2019-02-19T05:23:36.380Z,98710.86
2019-02-19T05:25:47.193Z,98716.77
2019-02-19T05:27:57.990Z,98710.71
2019-02-19T05:30:50.443Z,98712.97
2019-02-19T05:33:01.268Z,98709.97
2019-02-19T05:35:12.059Z,98715.63
2019-02-19T05:37:22.875Z,98708.34
2019-02-19T05:39:33.676Z,98706.48
2019-02-19T05:41:44.493Z,98700.13
2019-02-19T05:43:55.291Z,98707.80
2019-02-19T05:46:06.123Z,98708.64
2019-02-19T05:48:17.011Z,98719.38
2019-02-19T05:50:27.809Z,98718.14
2019-02-19T05:52:38.621Z,98712.13
2019-02-19T05:54:50.634Z,98709.93
2019-02-19T05:57:21.444Z,98719.28
2019-02-19T05:59:32.616Z,98712.79
2019-02-19T06:01:45.029Z,98716.58
2019-02-19T06:03:55.833Z,98716.03
2019-02-19T06:06:06.631Z,98707.42
2019-02-19T06:08:17.436Z,98701.75
2019-02-19T06:10:28.238Z,98700.31
2019-02-19T06:12:39.052Z,98695.42
2019-02-19T06:14:49.845Z,98703.75
2019-02-19T06:17:00.682Z,98713.36
2019-02-19T06:19:11.595Z,98716.97
2019-02-19T06:21:22.439Z,98716.81
2019-02-19T06:23:33.276Z,98721.82
2019-02-19T06:25:44.075Z,98721.77
2019-02-19T06:27:54.949Z,98724.27
2019-02-19T06:30:25.616Z,98721.77
2019-02-19T06:32:36.425Z,98729.52
2019-02-19T06:34:47.219Z,98736.22
2019-02-19T06:36:58.019Z,98737.39
2019-02-19T06:39:08.854Z,98732.52
2019-02-19T06:41:19.657Z,98740.90
2019-02-19T06:43:30.504Z,98737.26
2019-02-19T06:45:41.301Z,98738.75
2019-02-19T06:47:52.119Z,98748.33
2019-02-19T06:50:44.571Z,98743.37
2019-02-19T06:52:55.389Z,98739.78
2019-02-19T06:55:06.216Z,98732.14
2019-02-19T06:57:17.006Z,98742.53
2019-02-19T06:59:27.925Z,98744.33
2019-02-19T07:06:30.763Z,98747.56
2019-02-19T07:08:42.770Z,98746.75
2019-02-19T07:10:53.572Z,98749.81
2019-02-19T07:13:04.382Z,98756.00
2019-02-19T07:15:15.300Z,98752.75
2019-02-19T07:17:26.102Z,98756.28
2019-02-19T07:19:36.945Z,98760.44
2019-02-19T07:21:47.730Z,98760.12
2019-02-19T07:24:04.378Z,98764.80
2019-02-19T07:26:11.249Z,98766.14
2019-02-19T07:28:22.060Z,98761.97
2019-02-19T07:30:32.880Z,98757.98
2019-02-19T07:32:43.719Z,98762.50
2019-02-19T07:34:54.531Z,98761.64
2019-02-19T07:37:05.400Z,98765.77
2019-02-19T07:39:16.199Z,98765.13
2019-02-19T07:41:27.025Z,98763.22
2019-02-19T07:43:37.854Z,98760.26
2019-02-19T07:45:48.662Z,98757.58
2019-02-19T07:47:59.454Z,98757.35
2019-02-19T07:50:51.920Z,98760.99
2019-02-19T07:53:02.728Z,98769.79
2019-02-19T07:55:13.582Z,98770.71
2019-02-19T07:57:24.365Z,98777.03
2019-02-19T07:59:35.235Z,98773.37
2019-02-19T08:01:46.007Z,98780.70
2019-02-19T08:03:56.835Z,98781.66
2019-02-19T08:06:07.658Z,98784.38
2019-02-19T08:08:18.525Z,98779.31
2019-02-19T08:10:29.346Z,98780.87
2019-02-19T08:12:40.161Z,98780.28
2019-02-19T08:14:50.973Z,98783.52
2019-02-19T08:17:01.782Z,98786.80
2019-02-19T08:19:12.599Z,98795.70
2019-02-19T08:21:23.475Z,98796.01
2019-02-19T08:23:34.261Z,98796.66
2019-02-19T08:25:45.065Z,98790.09
2019-02-19T08:27:55.891Z,98796.44
2019-02-19T08:30:48.399Z,98790.19
2019-02-19T08:32:59.206Z,98788.17
2019-02-19T08:35:10.009Z,98785.17
2019-02-19T08:37:20.827Z,98774.58
2019-02-19T08:39:31.618Z,98780.35
2019-02-19T08:41:42.525Z,98788.98
2019-02-19T08:43:53.328Z,98784.41
2019-02-19T08:46:04.137Z,98780.83
2019-02-19T08:48:14.948Z,98786.76
2019-02-19T08:50:25.838Z,98776.94
2019-02-19T08:52:36.669Z,98785.23
2019-02-19T08:54:47.456Z,98780.18
2019-02-19T08:56:58.311Z,98787.56
2019-02-19T08:59:09.093Z,98782.95
2019-02-19T09:01:19.908Z,98779.45
2019-02-19T09:03:30.727Z,98782.67
2019-02-19T09:05:41.534Z,98784.02
2019-02-19T09:07:52.342Z,98788.63
2019-02-19T09:10:24.910Z,98791.66
2019-02-19T09:12:35.746Z,98790.92
2019-02-19T09:14:46.550Z,98788.02
2019-02-19T09:16:57.456Z,98787.68
2019-02-19T09:19:08.269Z,98789.16
2019-02-19T09:21:19.116Z,98793.91
2019-02-19T09:23:29.938Z,98800.58
2019-02-19T09:25:40.731Z,98801.50
2019-02-19T09:27:51.588Z,98797.19
2019-02-19T09:30:44.017Z,98807.98
2019-02-19T09:32:54.838Z,98805.31
2019-02-19T09:35:47.309Z,98808.12
2019-02-19T09:37:58.156Z,98814.56
2019-02-19T09:40:50.588Z,98812.90
2019-02-19T09:43:01.418Z,98810.36
2019-02-19T09:45:12.315Z,98804.72
2019-02-19T09:47:23.120Z,98802.13
2019-02-19T09:49:33.921Z,98800.70
2019-02-19T09:54:36.952Z,98808.89
2019-02-19T09:56:47.745Z,98811.12
2019-02-19T09:58:58.572Z,98820.66
2019-02-19T10:01:09.378Z,98815.45
2019-02-19T10:05:52.546Z,98816.46
2019-02-19T10:08:03.352Z,98819.16
2019-02-19T10:10:55.823Z,98828.11
2019-02-19T10:13:06.645Z,98827.05
2019-02-19T10:15:17.449Z,98834.13
2019-02-19T10:17:28.247Z,98841.20
2019-02-19T10:19:39.075Z,98839.26
2019-02-19T10:21:49.881Z,98837.18
2019-02-19T10:24:00.713Z,98834.41
2019-02-19T10:26:11.532Z,98841.47
2019-02-19T10:28:22.332Z,98840.66
2019-02-19T10:30:33.146Z,98842.59
2019-02-19T10:32:43.959Z,98832.67
2019-02-19T10:34:54.756Z,98844.12
2019-02-19T10:37:05.653Z,98840.92
2019-02-19T10:39:16.452Z,98846.30
2019-02-19T10:41:27.273Z,98840.83
2019-02-19T10:43:38.055Z,98838.38
2019-02-19T10:45:48.987Z,98837.48
2019-02-19T10:47:59.768Z,98849.23
2019-02-19T10:50:10.660Z,98849.87
2019-02-19T10:52:21.615Z,98854.36
2019-02-19T10:54:32.413Z,98850.72
2019-02-19T10:56:50.246Z,98850.14
2019-02-19T10:59:01.048Z,98850.08
2019-02-19T11:01:11.969Z,98850.28
2019-02-19T11:03:22.777Z,98843.00
2019-02-19T11:05:33.590Z,98843.09
2019-02-19T11:07:44.400Z,98841.20
2019-02-19T11:09:55.207Z,98835.05
2019-02-19T11:12:06.021Z,98837.67
2019-02-19T11:14:16.809Z,98836.19
2019-02-19T11:16:27.658Z,98835.17
2019-02-19T11:18:38.449Z,98839.01
2019-02-19T11:20:49.271Z,98844.88
2019-02-19T11:23:00.112Z,98845.05
2019-02-19T11:25:52.578Z,98834.02
2019-02-19T11:28:03.385Z,98829.55
2019-02-19T11:30:55.860Z,98835.42
2019-02-19T11:33:06.675Z,98830.83
2019-02-19T11:35:17.477Z,98841.63
2019-02-19T11:37:28.291Z,98838.62
2019-02-19T11:39:39.086Z,98840.13
2019-02-19T11:41:49.922Z,98836.13
2019-02-19T11:44:00.737Z,98819.97
2019-02-19T11:46:11.530Z,98816.81
2019-02-19T11:48:22.344Z,98825.20
2019-02-19T11:50:33.157Z,98827.05
2019-02-19T11:52:43.992Z,98837.60
2019-02-19T11:54:54.800Z,98832.38
2019-02-19T11:57:05.597Z,98828.11
2019-02-19T11:59:16.420Z,98832.02
2019-02-19T12:01:27.220Z,98830.97
2019-02-19T12:03:38.039Z,98833.58
2019-02-19T12:05:48.918Z,98831.15
2019-02-19T12:07:59.738Z,98832.73
2019-02-19T12:10:12.030Z,98834.36
2019-02-19T12:12:23.375Z,98828.77
2019-02-19T12:14:34.265Z,98831.26
2019-02-19T12:16:45.060Z,98827.97
2019-02-19T12:18:55.912Z,98832.47
2019-02-19T12:21:06.726Z,98832.98
2019-02-19T12:23:17.567Z,98834.09
2019-02-19T12:25:28.368Z,98836.75
2019-02-19T12:27:39.185Z,98830.63
2019-02-19T12:29:50.009Z,98828.78
2019-02-19T12:32:00.817Z,98833.63
2019-02-19T12:34:11.645Z,98835.36
2019-02-19T12:36:22.460Z,98835.93
2019-02-19T12:38:33.265Z,98835.41
2019-02-19T12:40:44.086Z,98832.97
2019-02-19T12:42:54.875Z,98830.92
2019-02-19T12:45:47.355Z,98833.11
2019-02-19T12:47:58.167Z,98834.86
2019-02-19T12:50:50.633Z,98832.50
2019-02-19T12:53:01.435Z,98835.41
2019-02-19T12:55:12.344Z,98840.28
2019-02-19T12:57:23.125Z,98836.23
2019-02-19T12:59:33.939Z,98834.48
2019-02-19T13:01:44.762Z,98837.31
2019-02-19T13:03:55.585Z,98848.16
2019-02-19T13:06:06.403Z,98841.34
2019-02-19T13:08:17.199Z,98842.56
2019-02-19T13:10:27.997Z,98842.50
2019-02-19T13:12:38.813Z,98850.06
2019-02-19T13:14:49.619Z,98846.77
2019-02-19T13:17:00.449Z,98848.41
2019-02-19T13:19:11.254Z,98849.10
2019-02-19T13:21:22.070Z,98848.73
2019-02-19T13:23:32.876Z,98855.64
2019-02-19T13:25:43.687Z,98851.70
2019-02-19T13:27:54.521Z,98849.01
2019-02-19T13:30:46.998Z,98841.45
2019-02-19T13:32:57.801Z,98844.70
2019-02-19T13:35:50.762Z,98847.12
2019-02-19T13:38:01.596Z,98847.63
2019-02-19T13:40:54.069Z,98846.42
2019-02-19T13:43:04.891Z,98838.69
2019-02-19T13:45:15.799Z,98842.80
2019-02-19T13:47:26.637Z,98846.52
2019-02-19T13:49:37.454Z,98838.12
2019-02-19T13:51:48.391Z,98840.39
2019-02-19T13:54:19.096Z,98846.03
2019-02-19T13:56:29.893Z,98846.95
2019-02-19T13:58:40.721Z,98855.38
2019-02-19T14:00:51.515Z,98854.09
2019-02-19T14:03:02.449Z,98852.41
2019-02-19T14:05:13.272Z,98848.02
2019-02-19T14:07:24.139Z,98853.84
2019-02-19T14:09:34.985Z,98847.73
2019-02-19T14:11:45.809Z,98853.47
2019-02-19T14:18:54.448Z,98854.77
2019-02-19T14:23:57.485Z,98852.75
2019-02-19T14:26:28.183Z,98850.95
2019-02-19T14:28:58.880Z,98853.08
2019-02-19T14:31:29.570Z,98858.51
2019-02-19T14:34:00.264Z,98849.75
2019-02-19T14:36:30.942Z,98851.80
2019-02-19T14:39:01.639Z,98854.62
2019-02-19T14:41:32.414Z,98853.60
2019-02-19T14:44:03.133Z,98856.03
2019-02-19T14:46:33.799Z,98855.41
2019-02-19T14:49:04.510Z,98859.67
2019-02-19T14:54:07.570Z,98848.09
2019-02-19T14:56:38.268Z,98846.65
2019-02-19T15:01:41.311Z,98845.67
2019-02-19T15:04:12.025Z,98841.72
2019-02-19T15:06:42.724Z,98847.78
2019-02-19T15:09:13.405Z,98840.59
2019-02-19T15:11:44.124Z,98839.98
2019-02-19T15:14:14.808Z,98839.98
2019-02-19T15:16:45.499Z,98845.93
2019-02-19T15:19:19.907Z,98841.14
2019-02-19T15:24:07.418Z,98845.47
2019-02-19T15:28:57.185Z,98836.14
2019-02-19T15:31:27.869Z,98832.80
2019-02-19T15:33:58.562Z,98836.19
2019-02-19T15:36:29.348Z,98834.03
2019-02-19T15:39:00.018Z,98832.30
2019-02-19T15:41:30.728Z,98837.11
2019-02-19T15:44:01.416Z,98843.87
2019-02-19T15:49:04.585Z,98846.70
2019-02-19T15:51:35.272Z,98850.05
2019-02-19T15:56:38.353Z,98849.66
2019-02-19T15:59:09.121Z,98849.97
2019-02-19T16:06:30.596Z,98851.92
2019-02-19T16:11:33.728Z,98854.57
2019-02-19T16:14:04.435Z,98852.03
2019-02-19T16:19:07.614Z,98854.49
2019-02-19T16:21:38.306Z,98855.69
2019-02-19T16:24:09.002Z,98854.48
2019-02-19T16:33:49.709Z,98844.88
2019-02-19T16:38:52.809Z,98843.47
2019-02-19T16:41:23.597Z,98843.61
2019-02-19T16:43:54.308Z,98843.09
2019-02-19T16:48:57.373Z,98844.33
2019-02-19T16:51:28.058Z,98850.28
2019-02-19T16:53:58.754Z,98854.81
2019-02-19T16:56:29.937Z,98855.48
2019-02-19T16:59:07.232Z,98862.67
2019-02-19T17:01:33.247Z,98864.61
2019-02-19T17:04:03.976Z,98863.98
2019-02-19T17:09:07.069Z,98867.03
2019-02-19T17:13:58.538Z,98876.44
2019-02-19T17:16:28.912Z,98880.91
2019-02-19T17:18:59.604Z,98883.76
2019-02-19T17:21:30.327Z,98887.77
2019-02-19T17:31:10.662Z,98898.51
2019-02-19T17:33:41.359Z,98901.69
2019-02-19T17:36:12.063Z,98897.16
2019-02-19T17:38:42.750Z,98897.73
2019-02-19T17:45:51.106Z,98912.47
2019-02-19T17:48:21.793Z,98911.75
2019-02-19T17:53:14.924Z,98910.78
2019-02-19T18:02:55.394Z,98917.42
2019-02-19T18:05:26.174Z,98927.44
2019-02-19T18:07:56.878Z,98928.46
2019-02-19T18:10:27.676Z,98925.15
2019-02-19T18:15:17.398Z,98925.98
2019-02-19T18:17:48.225Z,98934.36
2019-02-19T18:19:59.041Z,98933.17
2019-02-19T18:22:09.896Z,98932.52
2019-02-19T18:24:21.027Z,98936.44
2019-02-19T18:26:53.563Z,98933.86
2019-02-19T18:29:04.386Z,98941.69
2019-02-19T18:31:15.185Z,98940.09
2019-02-19T18:33:26.021Z,98940.87
2019-02-19T18:35:36.919Z,98940.62
2019-02-19T18:37:47.757Z,98947.58
2019-02-19T18:39:58.584Z,98948.97
2019-02-19T18:42:09.414Z,98957.42
2019-02-19T18:44:20.245Z,98955.08
2019-02-19T18:46:31.048Z,98950.78
2019-02-19T18:48:41.870Z,98955.66
2019-02-19T18:50:58.420Z,98954.47
2019-02-19T18:53:05.569Z,98950.38
2019-02-19T18:55:16.459Z,98949.35
2019-02-19T18:57:27.264Z,98955.91
2019-02-19T18:59:38.083Z,98951.30
2019-02-19T19:01:48.889Z,98951.98
2019-02-19T19:03:59.785Z,98958.76
2019-02-19T19:06:10.575Z,98957.39
2019-02-19T19:08:21.412Z,98957.05
2019-02-19T19:10:32.379Z,98957.78
2019-02-19T19:12:43.307Z,98956.73
2019-02-19T19:14:54.176Z,98957.73
2019-02-19T19:17:05.082Z,98960.04
2019-02-19T19:19:15.930Z,98958.21
2019-02-19T19:21:26.827Z,98955.45
2019-02-19T19:23:37.659Z,98956.19
2019-02-19T19:25:48.647Z,98962.41
2019-02-19T19:27:59.437Z,98959.80
2019-02-19T19:30:30.178Z,98969.50
2019-02-19T19:32:40.982Z,98968.45
2019-02-19T19:34:51.805Z,98982.36
2019-02-19T19:37:02.650Z,98978.69
2019-02-19T19:39:13.475Z,98986.05
2019-02-19T19:41:24.311Z,98985.73
2019-02-19T19:43:37.190Z,98986.02
2019-02-19T19:45:47.887Z,98983.84
2019-02-19T19:47:58.706Z,98980.03
2019-02-19T19:50:31.328Z,98983.38
2019-02-19T19:52:42.136Z,98980.34
2019-02-19T19:54:52.932Z,98987.05
2019-02-19T19:57:04.498Z,98987.89
2019-02-19T19:59:16.493Z,98992.32
2019-02-19T20:01:27.335Z,98989.88
2019-02-19T20:03:38.226Z,98988.67
2019-02-19T20:05:49.091Z,98988.33
2019-02-19T20:08:00.028Z,98987.19
2019-02-19T20:10:52.487Z,98983.56
2019-02-19T20:13:03.410Z,98988.78
2019-02-19T20:15:14.284Z,98987.55
2019-02-19T20:17:25.107Z,98990.13
2019-02-19T20:19:35.970Z,98992.76
2019-02-19T20:21:46.890Z,98996.80
2019-02-19T20:23:57.817Z,99000.55
2019-02-19T20:26:08.649Z,99010.83
2019-02-19T20:28:19.489Z,99010.42
2019-02-19T20:30:30.301Z,99009.14
2019-02-19T20:32:41.152Z,99016.48
2019-02-19T20:34:52.052Z,99014.30
2019-02-19T20:37:03.023Z,99011.27
2019-02-19T20:39:13.833Z,99021.22
2019-02-19T20:41:24.659Z,99022.08
2019-02-19T20:43:35.521Z,99023.60
2019-02-19T20:45:46.340Z,99025.62
2019-02-19T20:47:57.179Z,99024.60
2019-02-19T20:50:49.630Z,99025.12
2019-02-19T20:53:00.465Z,99024.33
2019-02-19T20:55:11.384Z,99024.83
2019-02-19T20:57:22.218Z,99036.55
2019-02-19T20:59:33.063Z,99035.31
2019-02-19T21:01:43.896Z,99038.82
2019-02-19T21:03:54.848Z,99038.89
2019-02-19T21:06:05.676Z,99038.09
2019-02-19T21:08:16.563Z,99040.16
2019-02-19T21:10:27.377Z,99038.44
2019-02-19T21:12:38.203Z,99042.73
2019-02-19T21:14:49.039Z,99041.89
2019-02-19T21:16:59.918Z,99049.55
2019-02-19T21:19:10.759Z,99046.20
2019-02-19T21:21:21.628Z,99045.02
2019-02-19T21:23:32.459Z,99048.13
2019-02-19T21:25:43.282Z,99048.27
2019-02-19T21:27:54.108Z,99050.45
2019-02-19T21:30:24.825Z,99051.47
2019-02-19T21:32:35.667Z,99052.02
2019-02-19T21:34:46.500Z,99043.74
2019-02-19T21:36:57.349Z,99054.94
2019-02-19T21:39:08.255Z,99051.09
2019-02-19T21:41:19.091Z,99053.22
2019-02-19T21:43:30.013Z,99048.21
2019-02-19T21:45:40.885Z,99053.47
2019-02-19T21:47:51.719Z,99048.83
2019-02-19T21:50:44.207Z,99050.51
2019-02-19T21:52:55.008Z,99049.19
2019-02-19T21:55:47.515Z,99047.47
2019-02-19T21:57:59.693Z,99049.19
2019-02-19T22:00:52.659Z,99044.19
2019-02-19T22:03:03.508Z,99045.50
2019-02-19T22:05:14.351Z,99046.79
2019-02-19T22:07:25.185Z,99048.59
2019-02-19T22:09:35.968Z,99050.31
2019-02-19T22:11:46.805Z,99046.91
2019-02-19T22:13:57.596Z,99046.47
2019-02-19T22:16:08.432Z,99045.98
2019-02-19T22:18:19.219Z,99046.80
2019-02-19T22:20:49.958Z,99049.80
2019-02-19T22:23:00.764Z,99054.61
2019-02-19T22:25:11.548Z,99055.89
2019-02-19T22:27:22.370Z,99052.05
2019-02-19T22:29:33.193Z,99056.37
2019-02-19T22:31:44.050Z,99056.05
2019-02-19T22:33:54.940Z,99047.16
2019-02-19T22:36:05.822Z,99043.47
2019-02-19T22:38:16.655Z,99044.34
2019-02-19T22:40:27.486Z,99046.47
2019-02-19T22:42:38.298Z,99049.95
2019-02-19T22:44:49.104Z,99051.63
2019-02-19T22:47:00.045Z,99046.88
2019-02-19T22:49:10.850Z,99052.80
2019-02-19T22:51:21.674Z,99049.76
2019-02-19T22:53:52.358Z,99052.33
2019-02-19T22:58:35.563Z,99048.08
2019-02-19T23:03:38.705Z,99057.23
2019-02-19T23:05:49.619Z,99062.47
2019-02-19T23:08:00.448Z,99057.86
2019-02-19T23:10:11.244Z,99055.26
2019-02-19T23:12:22.037Z,99054.05
2019-02-19T23:14:32.960Z,99056.23
2019-02-19T23:16:43.753Z,99058.00
2019-02-19T23:18:54.595Z,99056.34
2019-02-19T23:21:05.439Z,99058.88
2019-02-19T23:23:16.240Z,99065.65
2019-02-19T23:25:27.106Z,99064.23
2019-02-19T23:27:37.915Z,99059.03
2019-02-19T23:29:48.731Z,99065.84
2019-02-19T23:31:59.516Z,99062.47
2019-02-19T23:34:10.336Z,99062.10
2019-02-19T23:36:41.017Z,99066.79
2019-02-19T23:38:51.846Z,99067.27
2019-02-19T23:41:02.752Z,99071.62
2019-02-19T23:43:13.536Z,99061.80
2019-02-19T23:45:24.384Z,99064.88
2019-02-19T23:47:35.189Z,99069.19
2019-02-19T23:49:46.005Z,99062.81
2019-02-19T23:51:56.805Z,99067.94
2019-02-19T23:54:07.611Z,99068.75
2019-02-19T23:56:18.412Z,99066.62
2019-02-19T23:58:29.219Z,99058.09
